Time;durP1;ratioP1;P1;durP2;ratioP2;P2;SDS_P1;SDS_P2;PMS_P1;PMS_P2;Temp;Humidity;BMP_temperature;BMP_pressure;BME280_temperature;BME280_humidity;BME280_pressure;Samples;Min_cycle;Max_cycle;Signal;HPM_P1;HPM_P2
2022/04/04 00:02:11;;;;;;;;;;;;;;;6.47;70.12;95776.91;6323250;28;19916;-65
2022/04/04 00:05:15;;;;;;;;;;;;;;;6.48;70.16;95785.59;6323217;28;19920;-64
2022/04/04 00:08:17;;;;;;;;;;;;;;;6.46;70.37;95774.41;6322619;28;20312;-65
2022/04/04 00:11:20;;;;;;;;;;;;;;;6.32;70.07;95750.97;6322996;28;19920;-64
2022/04/04 00:14:21;;;;;;;;;;;;;;;6.47;70.48;95776.09;6322884;28;19930;-64
2022/04/04 00:17:25;;;;;;;;;;;;;;;6.61;70.02;95794.28;6322715;28;19919;-64
2022/04/04 00:20:28;;;;;;;;;;;;;;;6.26;70.39;95771.34;6322081;28;20412;-64
2022/04/04 00:23:29;;;;;;;;;;;;;;;6.08;71.05;95749.00;6322379;28;20377;-65
2022/04/04 00:26:33;;;;;;;;;;;;;;;6.07;71.41;95770.84;6322181;28;20427;-65
2022/04/04 00:29:36;;;;;;;;;;;;;;;6.19;71.55;95762.22;6322565;28;19920;-65
2022/04/04 00:32:38;;;;;;;;;;;;;;;6.25;71.01;95761.81;6322006;28;19943;-65
2022/04/04 00:35:44;;;;;;;;;;;;;;;6.15;71.24;95746.84;6322521;28;19924;-65
2022/04/04 00:38:45;;;;;;;;;;;;;;;5.95;71.91;95740.31;6322195;28;19943;-64
2022/04/04 00:41:47;;;;;;;;;;;;;;;5.79;72.64;95743.88;6320658;28;19920;-65
2022/04/04 00:44:48;;;;;;;;;;;;;;;5.72;72.81;95746.94;6321648;28;20012;-64
2022/04/04 00:47:49;;;;;;;;;;;;;;;5.96;72.36;95739.38;6321435;28;19919;-63
2022/04/04 00:50:50;;;;;;;;;;;;;;;5.81;72.84;95744.63;6321304;28;20268;-64
2022/04/04 00:53:53;;;;;;;;;;;;;;;5.97;72.79;95741.03;6322101;28;19955;-64
2022/04/04 00:56:55;;;;;;;;;;;;;;;5.98;72.31;95747.94;6321606;28;19919;-65
2022/04/04 01:00:01;;;;;;;;;;;;;;;6.01;72.23;95752.97;6321785;28;19919;-64
2022/04/04 01:03:04;;;;;;;;;;;;;;;6.24;71.68;95760.13;6321427;28;19920;-65
2022/04/04 01:06:05;;;;;;;;;;;;;;;6.29;70.64;95763.28;6321206;28;19926;-64
2022/04/04 01:09:06;;;;;;;;;;;;;;;6.21;70.22;95760.34;6321717;28;19926;-64
2022/04/04 01:12:10;;;;;;;;;;;;;;;6.30;70.63;95759.72;6321061;28;19920;-65
2022/04/04 01:15:14;;;;;;;;;;;;;;;6.08;71.40;95759.47;6321632;28;19920;-64
2022/04/04 01:18:17;;;;;;;;;;;;;;;6.02;71.26;95749.41;6321038;28;19920;-64
2022/04/04 01:21:23;;;;;;;;;;;;;;;6.08;71.55;95764.69;6320831;28;20478;-64
2022/04/04 01:24:24;;;;;;;;;;;;;;;5.96;71.95;95760.25;6321448;28;19920;-65
2022/04/04 01:27:28;;;;;;;;;;;;;;;5.88;71.54;95763.31;6321050;28;20297;-64
2022/04/04 01:30:31;;;;;;;;;;;;;;;5.89;71.90;95748.47;6321017;28;19926;-65
2022/04/04 01:33:37;;;;;;;;;;;;;;;5.71;72.29;95750.50;6320967;28;20424;-64
2022/04/04 01:36:38;;;;;;;;;;;;;;;5.91;72.37;95757.91;6320987;28;19926;-64
2022/04/04 01:39:39;;;;;;;;;;;;;;;6.14;71.83;95753.81;6320346;28;19920;-64
2022/04/04 01:42:41;;;;;;;;;;;;;;;6.21;71.14;95739.44;6320627;28;19923;-64
2022/04/04 01:49:08;;;;;;;;;;;;;;;5.83;71.92;95732.31;6320754;28;19961;-63
2022/04/04 01:52:11;;;;;;;;;;;;;;;5.72;72.09;95741.72;6320981;28;19919;-65
2022/04/04 01:55:14;;;;;;;;;;;;;;;5.76;71.85;95725.78;6320908;28;20309;-64
2022/04/04 01:58:18;;;;;;;;;;;;;;;5.65;72.53;95730.03;6322676;28;19920;-65
2022/04/04 02:01:23;;;;;;;;;;;;;;;5.69;72.48;95715.81;6325993;28;20306;-64
2022/04/04 02:04:24;;;;;;;;;;;;;;;6.01;71.71;95711.19;6325957;28;20389;-64
2022/04/04 02:07:25;;;;;;;;;;;;;;;6.13;71.58;95710.38;6325550;28;19919;-64
2022/04/04 02:10:28;;;;;;;;;;;;;;;6.08;71.40;95702.00;6325560;28;20336;-64
2022/04/04 02:13:32;;;;;;;;;;;;;;;6.17;71.11;95690.97;6325642;28;19967;-64
2022/04/04 02:16:36;;;;;;;;;;;;;;;6.16;71.32;95688.44;6323611;28;19926;-65
2022/04/04 02:19:39;;;;;;;;;;;;;;;6.19;71.42;95694.28;6325481;28;19927;-64
2022/04/04 02:22:43;;;;;;;;;;;;;;;6.37;71.53;95702.72;6324487;28;19919;-64
2022/04/04 02:25:45;;;;;;;;;;;;;;;6.54;70.34;95698.97;6324613;28;19927;-65
2022/04/04 02:28:48;;;;;;;;;;;;;;;6.53;70.51;95712.94;6325360;28;19920;-64
2022/04/04 02:31:52;;;;;;;;;;;;;;;6.58;70.50;95699.59;6325353;28;19920;-64
2022/04/04 02:34:53;;;;;;;;;;;;;;;6.71;70.36;95690.81;6324604;28;19920;-64
2022/04/04 02:37:56;;;;;;;;;;;;;;;6.84;69.89;95693.41;6324794;28;19920;-64
2022/04/04 02:40:58;;;;;;;;;;;;;;;6.87;69.61;95684.50;6324443;28;20382;-64
2022/04/04 02:44:01;;;;;;;;;;;;;;;6.96;69.09;95695.19;6324783;28;19927;-64
2022/04/04 02:47:04;;;;;;;;;;;;;;;7.02;68.08;95707.00;6324994;28;19920;-65
2022/04/04 02:50:08;;;;;;;;;;;;;;;6.95;68.09;95693.50;6324881;28;19928;-65
2022/04/04 02:53:09;;;;;;;;;;;;;;;6.96;68.29;95694.31;6323092;28;19973;-65
2022/04/04 02:56:29;;;;;;;;;;;;;;;7.02;68.91;95696.53;6324344;28;20328;-65
2022/04/04 02:59:31;;;;;;;;;;;;;;;7.01;68.16;95681.78;6323358;28;20324;-65
2022/04/04 03:02:35;;;;;;;;;;;;;;;7.01;68.88;95692.22;6324216;28;19920;-66
2022/04/04 03:05:39;;;;;;;;;;;;;;;7.24;68.24;95695.03;6324092;28;20381;-65
2022/04/04 03:08:41;;;;;;;;;;;;;;;7.09;68.37;95708.22;6323726;28;19927;-65
2022/04/04 03:11:44;;;;;;;;;;;;;;;7.12;68.01;95730.72;6323107;28;19919;-65
2022/04/04 03:14:45;;;;;;;;;;;;;;;7.11;68.10;95722.06;6324138;28;19920;-64
2022/04/04 03:17:47;;;;;;;;;;;;;;;7.00;67.96;95737.66;6323738;28;19927;-64
2022/04/04 03:20:49;;;;;;;;;;;;;;;7.08;67.54;95730.13;6323526;28;19924;-64
2022/04/04 03:23:52;;;;;;;;;;;;;;;6.88;68.35;95738.47;6324197;28;19991;-64
2022/04/04 03:26:53;;;;;;;;;;;;;;;6.78;68.72;95726.97;6323472;28;19942;-65
2022/04/04 03:29:54;;;;;;;;;;;;;;;6.73;69.13;95722.88;6323603;28;19920;-64
2022/04/04 03:32:58;;;;;;;;;;;;;;;6.70;69.22;95710.03;6323647;28;19920;-64
2022/04/04 03:36:01;;;;;;;;;;;;;;;6.75;69.31;95707.94;6323411;28;20397;-64
2022/04/04 03:39:07;;;;;;;;;;;;;;;6.86;69.27;95698.53;6323399;28;19920;-65
2022/04/04 03:42:12;;;;;;;;;;;;;;;6.94;69.27;95683.16;6323675;28;19920;-65
2022/04/04 03:45:15;;;;;;;;;;;;;;;6.97;69.14;95665.47;6323405;28;19924;-65
2022/04/04 03:48:16;;;;;;;;;;;;;;;7.04;69.08;95650.16;6321468;28;20012;-65
2022/04/04 03:51:20;;;;;;;;;;;;;;;6.92;69.23;95645.81;6323450;28;20397;-64
2022/04/04 03:54:26;;;;;;;;;;;;;;;7.03;69.53;95639.84;6323297;28;20376;-65
2022/04/04 03:57:30;;;;;;;;;;;;;;;7.20;69.44;95629.00;6322381;28;19930;-65
2022/04/04 04:00:31;;;;;;;;;;;;;;;7.41;69.18;95616.97;6323141;28;19950;-63
2022/04/04 04:03:37;;;;;;;;;;;;;;;7.74;68.70;95601.56;6322763;28;19923;-64
2022/04/04 04:06:40;;;;;;;;;;;;;;;8.12;67.97;95590.81;6323084;28;20385;-65
2022/04/04 04:09:42;;;;;;;;;;;;;;;8.54;67.22;95602.47;6322856;28;19920;-65
2022/04/04 04:12:46;;;;;;;;;;;;;;;9.06;65.91;95617.72;6323172;28;19920;-65
2022/04/04 04:15:47;;;;;;;;;;;;;;;9.48;64.98;95618.72;6322164;28;20413;-64
2022/04/04 04:18:49;;;;;;;;;;;;;;;9.90;62.66;95613.56;6322337;28;20047;-64
2022/04/04 04:21:52;;;;;;;;;;;;;;;10.23;61.57;95636.22;6321571;28;20305;-64
2022/04/04 04:24:56;;;;;;;;;;;;;;;10.29;60.65;95646.25;6322330;28;19916;-66
2022/04/04 04:28:03;;;;;;;;;;;;;;;10.59;60.83;95644.66;6322478;28;19920;-65
2022/04/04 04:31:06;;;;;;;;;;;;;;;11.09;59.45;95649.19;6321862;28;19920;-65
2022/04/04 04:34:10;;;;;;;;;;;;;;;11.63;58.59;95664.63;6321162;28;20293;-65
2022/04/04 04:37:14;;;;;;;;;;;;;;;11.88;56.52;95662.44;6322315;28;19919;-64
2022/04/04 04:40:15;;;;;;;;;;;;;;;11.81;56.41;95666.59;6321831;28;19922;-64
2022/04/04 04:43:21;;;;;;;;;;;;;;;11.81;57.31;95662.16;6321930;28;19952;-65
2022/04/04 04:46:25;;;;;;;;;;;;;;;12.20;57.35;95677.19;6321790;28;20234;-65
2022/04/04 04:49:28;;;;;;;;;;;;;;;12.57;57.17;95680.78;6321345;28;19927;-65
2022/04/04 04:52:30;;;;;;;;;;;;;;;12.97;55.09;95685.00;6321683;28;19919;-65
2022/04/04 04:55:31;;;;;;;;;;;;;;;12.97;55.45;95692.94;6321030;28;19927;-64
2022/04/04 04:58:34;;;;;;;;;;;;;;;13.29;55.50;95686.47;6321289;28;19920;-65
2022/04/04 05:01:38;;;;;;;;;;;;;;;14.13;53.62;95688.09;6321731;28;19920;-65
2022/04/04 05:04:39;;;;;;;;;;;;;;;14.66;52.38;95697.00;6321157;28;20421;-64
2022/04/04 05:07:40;;;;;;;;;;;;;;;14.83;51.65;95688.19;6320702;28;19955;-64
2022/04/04 05:10:41;;;;;;;;;;;;;;;15.03;49.65;95672.94;6321516;28;19920;-65
2022/04/04 05:13:42;;;;;;;;;;;;;;;14.94;49.57;95668.56;6320990;28;20024;-65
2022/04/04 05:16:46;;;;;;;;;;;;;;;14.97;49.83;95662.97;6320937;28;19920;-64
2022/04/04 05:19:47;;;;;;;;;;;;;;;14.90;51.03;95652.16;6320931;28;19915;-65
2022/04/04 05:22:50;;;;;;;;;;;;;;;14.93;50.46;95657.16;6319866;28;19940;-65
2022/04/04 05:25:51;;;;;;;;;;;;;;;14.87;49.76;95651.66;6319918;28;19920;-65
2022/04/04 05:28:52;;;;;;;;;;;;;;;14.23;50.79;95632.44;6320626;28;19926;-64
2022/04/04 05:31:56;;;;;;;;;;;;;;;13.55;51.85;95617.06;6320782;28;19920;-64
2022/04/04 05:35:01;;;;;;;;;;;;;;;13.09;52.31;95632.03;6320313;28;19920;-65
2022/04/04 05:38:02;;;;;;;;;;;;;;;12.46;53.91;95604.44;6320440;28;19927;-66
2022/04/04 05:41:04;;;;;;;;;;;;;;;12.28;54.36;95603.47;6320418;28;20046;-67
2022/04/04 05:44:06;;;;;;;;;;;;;;;12.05;54.81;95634.56;6320678;28;20012;-67
2022/04/04 05:47:11;;;;;;;;;;;;;;;11.88;55.10;95630.81;6320820;28;19920;-66
2022/04/04 05:50:12;;;;;;;;;;;;;;;11.52;55.98;95630.50;6319901;28;19943;-66
2022/04/04 05:53:16;;;;;;;;;;;;;;;11.22;56.93;95645.38;6320470;28;19997;-66
2022/04/04 05:56:21;;;;;;;;;;;;;;;11.19;56.70;95635.09;6320650;28;19942;-67
2022/04/04 05:59:22;;;;;;;;;;;;;;;11.07;56.89;95609.84;6320155;28;19919;-65
2022/04/04 06:02:26;;;;;;;;;;;;;;;10.93;57.36;95628.63;6319245;28;19919;-67
2022/04/04 06:05:29;;;;;;;;;;;;;;;10.77;57.86;95627.31;6320106;28;20274;-65
2022/04/04 06:08:30;;;;;;;;;;;;;;;10.69;58.21;95590.28;6320624;28;19942;-65
2022/04/04 06:11:34;;;;;;;;;;;;;;;11.03;57.96;95608.44;6320134;28;20289;-65
2022/04/04 06:14:38;;;;;;;;;;;;;;;11.63;55.98;95601.38;6319976;28;20061;-65
2022/04/04 06:17:44;;;;;;;;;;;;;;;11.67;55.58;95596.66;6320631;28;20347;-65
2022/04/04 06:20:47;;;;;;;;;;;;;;;11.37;56.00;95595.78;6320069;28;19927;-64
2022/04/04 06:23:51;;;;;;;;;;;;;;;11.15;57.02;95588.97;6320682;28;19920;-65
2022/04/04 06:26:51;;;;;;;;;;;;;;;11.35;56.35;95586.34;6318237;28;19920;-64
2022/04/04 06:29:53;;;;;;;;;;;;;;;11.32;56.04;95570.81;6319925;28;19920;-64
2022/04/04 06:32:54;;;;;;;;;;;;;;;11.01;56.86;95531.41;6320132;28;20412;-65
2022/04/04 06:35:57;;;;;;;;;;;;;;;11.04;57.46;95515.38;6320344;28;19919;-65
2022/04/04 06:38:58;;;;;;;;;;;;;;;12.04;55.87;95557.28;6319849;28;19924;-64
2022/04/04 06:42:02;;;;;;;;;;;;;;;13.83;52.66;95551.75;6320041;28;19920;-64
2022/04/04 06:45:06;;;;;;;;;;;;;;;16.04;47.99;95590.81;6323201;28;20368;-65
2022/04/04 06:48:10;;;;;;;;;;;;;;;16.10;46.47;95614.03;6324546;28;19920;-65
2022/04/04 06:51:13;;;;;;;;;;;;;;;14.83;47.83;95606.09;6325153;28;19920;-65
2022/04/04 06:54:15;;;;;;;;;;;;;;;13.60;51.04;95591.03;6324499;28;19927;-65
2022/04/04 06:57:19;;;;;;;;;;;;;;;13.15;52.71;95579.44;6324865;28;19920;-66
2022/04/04 07:00:22;;;;;;;;;;;;;;;13.79;51.82;95551.25;6323769;28;19926;-64
2022/04/04 07:03:26;;;;;;;;;;;;;;;16.25;47.72;95501.91;6324409;28;19920;-65
2022/04/04 07:06:27;;;;;;;;;;;;;;;20.47;41.09;95508.19;6324350;28;19920;-66
2022/04/04 07:09:30;;;;;;;;;;;;;;;23.40;36.64;95533.78;6324059;28;19935;-64
2022/04/04 07:12:33;;;;;;;;;;;;;;;24.32;36.17;95537.03;6323267;28;19924;-65
2022/04/04 07:15:35;;;;;;;;;;;;;;;23.45;37.60;95563.50;6323421;28;19923;-65
2022/04/04 07:18:36;;;;;;;;;;;;;;;22.91;38.16;95568.13;6324196;28;19927;-66
2022/04/04 07:21:39;;;;;;;;;;;;;;;21.51;38.73;95567.91;6324280;28;19921;-65
2022/04/04 07:24:46;;;;;;;;;;;;;;;20.69;40.70;95538.38;6323568;28;19927;-65
2022/04/04 07:27:48;;;;;;;;;;;;;;;20.89;39.49;95531.34;6323120;28;19931;-64
2022/04/04 07:30:52;;;;;;;;;;;;;;;22.46;34.71;95521.56;6322165;28;20451;-65
2022/04/04 07:33:54;;;;;;;;;;;;;;;25.05;30.88;95525.63;6323642;28;19920;-65
2022/04/04 07:36:58;;;;;;;;;;;;;;;26.53;29.90;95520.88;6323570;28;19924;-65
2022/04/04 07:39:59;;;;;;;;;;;;;;;28.68;26.80;95515.28;6323758;28;19927;-65
2022/04/04 07:43:03;;;;;;;;;;;;;;;30.27;24.81;95506.53;6321316;28;19920;-65
2022/04/04 07:46:09;;;;;;;;;;;;;;;31.50;23.25;95505.53;6323262;28;19920;-66
2022/04/04 07:49:10;;;;;;;;;;;;;;;29.97;25.84;95483.41;6323144;28;19970;-65
2022/04/04 07:52:11;;;;;;;;;;;;;;;28.11;28.38;95467.53;6323237;28;20301;-65
2022/04/04 07:55:12;;;;;;;;;;;;;;;26.26;29.92;95467.31;6322089;28;19920;-65
2022/04/04 07:58:17;;;;;;;;;;;;;;;24.58;32.40;95461.53;6323612;28;20296;-65
2022/04/04 08:01:18;;;;;;;;;;;;;;;23.38;34.17;95471.41;6322996;28;19919;-65
2022/04/04 08:04:26;;;;;;;;;;;;;;;22.37;34.72;95475.38;6323017;28;19919;-63
2022/04/04 08:07:30;;;;;;;;;;;;;;;20.78;35.93;95470.38;6322827;28;20400;-65
2022/04/04 08:10:31;;;;;;;;;;;;;;;19.48;36.66;95466.19;6322151;28;20378;-65
2022/04/04 08:13:35;;;;;;;;;;;;;;;18.32;37.83;95454.44;6322415;28;19926;-65
2022/04/04 08:16:39;;;;;;;;;;;;;;;17.53;39.27;95464.56;6322711;28;19920;-65
2022/04/04 08:19:42;;;;;;;;;;;;;;;17.30;39.79;95465.38;6322544;28;20058;-63
2022/04/04 08:22:45;;;;;;;;;;;;;;;18.71;37.87;95466.66;6321910;28;19927;-66
2022/04/04 08:25:46;;;;;;;;;;;;;;;22.12;32.19;95472.47;6321988;28;20030;-65
2022/04/04 08:28:47;;;;;;;;;;;;;;;24.07;29.41;95462.56;6321689;28;20245;-64
2022/04/04 08:31:48;;;;;;;;;;;;;;;23.60;29.96;95453.13;6322392;28;19927;-65
2022/04/04 08:34:51;;;;;;;;;;;;;;;22.79;30.54;95457.16;6322232;28;19923;-65
2022/04/04 08:37:55;;;;;;;;;;;;;;;22.59;30.74;95462.53;6322349;28;19998;-66
2022/04/04 08:41:03;;;;;;;;;;;;;;;21.12;33.30;95455.31;6322397;28;19920;-64
2022/04/04 08:44:07;;;;;;;;;;;;;;;19.26;36.49;95444.00;6322197;28;19920;-65
2022/04/04 08:47:11;;;;;;;;;;;;;;;18.52;38.05;95462.72;6322234;28;19926;-66
2022/04/04 08:50:18;;;;;;;;;;;;;;;18.62;38.25;95465.91;6321688;28;20385;-66
2022/04/04 08:53:19;;;;;;;;;;;;;;;18.97;37.50;95458.22;6321304;28;19927;-65
2022/04/04 08:56:21;;;;;;;;;;;;;;;18.74;37.83;95440.50;6321245;28;19965;-66
2022/04/04 08:59:25;;;;;;;;;;;;;;;18.35;38.77;95438.91;6321104;28;19920;-65
2022/04/04 09:02:32;;;;;;;;;;;;;;;18.15;38.86;95440.47;6321715;28;20293;-65
2022/04/04 09:05:48;;;;;;;;;;;;;;;17.59;40.23;95446.06;6321408;28;19915;-65
2022/04/04 09:08:51;;;;;;;;;;;;;;;17.51;40.58;95454.91;6320791;28;19920;-65
2022/04/04 09:12:07;;;;;;;;;;;;;;;17.31;41.12;95456.38;6321329;28;19920;-65
2022/04/04 09:15:08;;;;;;;;;;;;;;;17.77;40.28;95464.34;6320755;28;20309;-66
2022/04/04 09:18:09;;;;;;;;;;;;;;;18.48;39.08;95472.88;6320572;28;20016;-66
2022/04/04 09:21:18;;;;;;;;;;;;;;;18.63;39.02;95475.59;6321150;28;19919;-65
2022/04/04 09:24:21;;;;;;;;;;;;;;;18.98;38.25;95478.53;6321235;28;19921;-65
2022/04/04 09:27:34;;;;;;;;;;;;;;;19.38;37.48;95468.34;6320510;28;19919;-66
2022/04/04 09:30:36;;;;;;;;;;;;;;;20.09;36.98;95477.25;6321342;28;20301;-65
2022/04/04 09:33:40;;;;;;;;;;;;;;;22.35;33.92;95477.44;6320951;28;19927;-65
2022/04/04 09:36:46;;;;;;;;;;;;;;;24.42;31.29;95478.19;6320263;28;19965;-66
2022/04/04 09:40:01;;;;;;;;;;;;;;;24.44;31.50;95481.53;6321025;28;19920;-65
2022/04/04 09:43:04;;;;;;;;;;;;;;;23.79;31.83;95494.38;6320522;28;19920;-65
2022/04/04 09:46:10;;;;;;;;;;;;;;;23.01;32.59;95492.59;6320689;28;19920;-66
2022/04/04 09:49:16;;;;;;;;;;;;;;;22.94;33.04;95497.97;6320657;28;19924;-65
2022/04/04 09:52:17;;;;;;;;;;;;;;;23.69;31.55;95489.44;6320248;28;19920;-66
2022/04/04 09:55:28;;;;;;;;;;;;;;;23.89;30.75;95487.50;6319277;28;19920;-66
2022/04/04 09:58:30;;;;;;;;;;;;;;;23.63;30.75;95466.94;6318753;28;20435;-66
2022/04/04 10:01:34;;;;;;;;;;;;;;;24.02;30.75;95467.78;6318864;28;20373;-65
2022/04/04 10:04:37;;;;;;;;;;;;;;;24.92;28.90;95461.22;6320121;28;19919;-63
2022/04/04 10:07:39;;;;;;;;;;;;;;;24.51;29.81;95444.63;6319857;28;20385;-65
2022/04/04 10:10:43;;;;;;;;;;;;;;;23.43;31.35;95447.44;6320143;28;19920;-65
2022/04/04 10:13:46;;;;;;;;;;;;;;;22.23;33.36;95441.59;6319935;28;19926;-65
2022/04/04 10:16:48;;;;;;;;;;;;;;;21.75;34.29;95451.41;6319768;28;20412;-65
2022/04/04 10:19:50;;;;;;;;;;;;;;;22.85;32.36;95433.00;6322232;28;20026;-65
2022/04/04 10:22:57;;;;;;;;;;;;;;;23.57;30.71;95426.72;6325288;28;19919;-65
2022/04/04 10:26:00;;;;;;;;;;;;;;;24.13;30.04;95431.31;6324601;28;19919;-66
2022/04/04 10:29:09;;;;;;;;;;;;;;;24.85;28.95;95423.59;6324475;28;19920;-66
2022/04/04 10:32:31;;;;;;;;;;;;;;;25.41;28.23;95414.47;6325096;28;20005;-65
2022/04/04 10:35:34;;;;;;;;;;;;;;;26.15;27.53;95408.81;6324876;28;20060;-65
2022/04/04 10:38:37;;;;;;;;;;;;;;;26.51;26.77;95401.59;6324522;28;20042;-64
2022/04/04 10:41:38;;;;;;;;;;;;;;;26.75;26.76;95405.94;6324413;28;20381;-65
2022/04/04 10:44:47;;;;;;;;;;;;;;;26.92;26.24;95400.63;6324671;28;20303;-65
2022/04/04 10:47:48;;;;;;;;;;;;;;;25.97;27.59;95405.16;6324365;28;19920;-64
2022/04/04 10:50:54;;;;;;;;;;;;;;;25.91;27.62;95403.41;6324309;28;19945;-65
2022/04/04 10:54:01;;;;;;;;;;;;;;;26.38;27.03;95400.75;6324282;28;19923;-65
2022/04/04 10:57:14;;;;;;;;;;;;;;;26.85;26.08;95384.53;6324197;28;19924;-65
2022/04/04 11:00:16;;;;;;;;;;;;;;;26.96;26.12;95373.97;6322488;28;19920;-65
2022/04/04 11:03:33;;;;;;;;;;;;;;;27.17;26.24;95381.44;6324503;28;19920;-66
2022/04/04 11:10:08;;;;;;;;;;;;;;;26.27;25.95;95369.22;6324036;28;19920;-65
2022/04/04 11:13:14;;;;;;;;;;;;;;;26.19;26.98;95370.38;6323557;28;19943;-65
2022/04/04 11:16:17;;;;;;;;;;;;;;;26.81;26.51;95361.81;6323641;28;20086;-65
2022/04/04 11:19:21;;;;;;;;;;;;;;;27.09;25.58;95366.41;6322071;28;19920;-66
2022/04/04 11:22:23;;;;;;;;;;;;;;;26.57;26.66;95360.19;6323599;28;20033;-66
2022/04/04 11:25:33;;;;;;;;;;;;;;;26.14;26.69;95361.38;6323769;28;19975;-65
2022/04/04 11:28:38;;;;;;;;;;;;;;;25.33;27.31;95360.91;6323940;28;19952;-65
2022/04/04 11:31:48;;;;;;;;;;;;;;;24.42;29.05;95365.28;6323650;28;19920;-66
2022/04/04 11:34:50;;;;;;;;;;;;;;;24.17;29.15;95384.13;6323261;28;19942;-66
2022/04/04 11:38:01;;;;;;;;;;;;;;;23.73;29.85;95394.84;6321291;28;20251;-66
2022/04/04 11:41:09;;;;;;;;;;;;;;;23.45;30.40;95394.38;6323166;28;20002;-65
2022/04/04 11:44:26;;;;;;;;;;;;;;;23.12;30.84;95386.50;6323507;28;19939;-65
2022/04/04 11:47:29;;;;;;;;;;;;;;;22.28;32.24;95370.25;6323689;28;19926;-65
2022/04/04 11:50:35;;;;;;;;;;;;;;;21.90;32.76;95368.19;6321576;28;19920;-65
2022/04/04 11:53:38;;;;;;;;;;;;;;;21.53;33.45;95364.28;6322567;28;19920;-65
2022/04/04 11:56:44;;;;;;;;;;;;;;;21.23;33.98;95366.44;6321024;28;20309;-65
2022/04/04 11:59:49;;;;;;;;;;;;;;;20.75;34.69;95363.84;6322960;28;20010;-64
2022/04/04 12:02:53;;;;;;;;;;;;;;;20.30;35.72;95374.09;6323058;28;19920;-65
2022/04/04 12:05:56;;;;;;;;;;;;;;;20.02;36.17;95369.59;6322336;28;19919;-66
2022/04/04 12:09:03;;;;;;;;;;;;;;;19.85;36.35;95362.91;6322056;28;19920;-66
2022/04/04 12:12:08;;;;;;;;;;;;;;;19.69;36.99;95359.47;6322017;28;19927;-65
2022/04/04 12:15:10;;;;;;;;;;;;;;;19.74;36.90;95370.41;6321702;28;20390;-65
2022/04/04 12:18:21;;;;;;;;;;;;;;;19.62;36.93;95371.94;6321842;28;19924;-65
2022/04/04 12:21:22;;;;;;;;;;;;;;;19.41;37.29;95382.59;6321551;28;20046;-65
2022/04/04 12:27:58;;;;;;;;;;;;;;;18.95;38.40;95372.28;6320706;28;20006;-65
2022/04/04 12:31:19;;;;;;;;;;;;;;;19.04;38.51;95368.47;6322023;28;20490;-65
2022/04/04 12:34:23;;;;;;;;;;;;;;;18.58;39.27;95374.91;6321739;28;19920;-66
2022/04/04 12:37:33;;;;;;;;;;;;;;;18.27;39.93;95359.13;6303119;28;19926;-65
2022/04/04 12:40:39;;;;;;;;;;;;;;;18.20;39.33;95363.50;6321364;28;20347;-65
2022/04/04 12:43:43;;;;;;;;;;;;;;;17.93;39.42;95357.81;6319428;28;19985;-65
2022/04/04 12:46:45;;;;;;;;;;;;;;;17.69;39.82;95366.00;6321068;28;19920;-65
2022/04/04 12:49:46;;;;;;;;;;;;;;;17.65;40.06;95354.91;6321084;28;20389;-66
2022/04/04 12:52:57;;;;;;;;;;;;;;;17.24;40.88;95365.06;6320865;28;20296;-65
2022/04/04 12:56:06;;;;;;;;;;;;;;;17.28;41.09;95363.69;6321480;28;19924;-65
2022/04/04 12:59:10;;;;;;;;;;;;;;;17.04;41.67;95362.88;6321264;28;19920;-66
2022/04/04 13:02:13;;;;;;;;;;;;;;;16.89;42.39;95367.28;6318779;28;19920;-65
2022/04/04 13:05:18;;;;;;;;;;;;;;;16.82;43.59;95372.47;6320902;28;19920;-65
2022/04/04 13:08:22;;;;;;;;;;;;;;;16.33;44.88;95358.56;6320552;28;20404;-66
2022/04/04 13:11:26;;;;;;;;;;;;;;;15.88;45.86;95355.56;6320869;28;19920;-65
2022/04/04 13:14:45;;;;;;;;;;;;;;;15.73;46.88;95364.38;6320881;28;19920;-65
2022/04/04 13:17:49;;;;;;;;;;;;;;;15.53;47.64;95367.31;6320278;28;19919;-65
2022/04/04 13:20:50;;;;;;;;;;;;;;;15.33;48.39;95371.31;6321106;28;19927;-65
2022/04/04 13:23:51;;;;;;;;;;;;;;;15.33;48.95;95376.63;6319766;28;20857;-65
2022/04/04 13:26:52;;;;;;;;;;;;;;;15.19;49.49;95381.56;6319610;28;20404;-65
2022/04/04 13:29:53;;;;;;;;;;;;;;;15.22;49.67;95380.41;6319350;28;19920;-64
2022/04/04 13:32:59;;;;;;;;;;;;;;;15.16;49.75;95387.19;6320378;28;20006;-65
2022/04/04 13:36:01;;;;;;;;;;;;;;;14.71;50.73;95380.50;6318560;28;20392;-65
2022/04/04 13:39:03;;;;;;;;;;;;;;;14.46;51.53;95368.13;6318431;28;20308;-65
2022/04/04 13:42:04;;;;;;;;;;;;;;;14.25;52.00;95366.75;6319903;28;19916;-64
2022/04/04 13:45:08;;;;;;;;;;;;;;;14.07;52.59;95358.09;6319420;28;19919;-65
2022/04/04 13:48:11;;;;;;;;;;;;;;;13.85;53.26;95352.34;6317888;28;19916;-66
2022/04/04 13:51:20;;;;;;;;;;;;;;;13.47;54.16;95362.34;6319376;28;19920;-65
2022/04/04 13:54:23;;;;;;;;;;;;;;;13.31;54.29;95356.94;6318272;28;20281;-66
2022/04/04 13:57:27;;;;;;;;;;;;;;;13.33;54.60;95364.69;6319233;28;19927;-66
2022/04/04 14:00:29;;;;;;;;;;;;;;;13.28;54.84;95357.25;6319432;28;19920;-64
2022/04/04 14:03:31;;;;;;;;;;;;;;;13.07;55.51;95362.78;6319162;28;19931;-65
2022/04/04 14:06:33;;;;;;;;;;;;;;;12.89;55.44;95357.53;6319707;28;19942;-64
2022/04/04 14:09:34;;;;;;;;;;;;;;;12.70;55.89;95352.38;6319247;28;19919;-65
2022/04/04 14:12:40;;;;;;;;;;;;;;;12.57;55.97;95361.50;6319304;28;19920;-65
2022/04/04 14:15:41;;;;;;;;;;;;;;;12.48;55.76;95354.50;6318563;28;20056;-65
2022/04/04 14:18:43;;;;;;;;;;;;;;;12.33;55.79;95346.22;6318708;28;19920;-65
2022/04/04 14:21:44;;;;;;;;;;;;;;;12.46;55.14;95329.25;6319410;28;19920;-65
2022/04/04 14:24:49;;;;;;;;;;;;;;;12.58;54.43;95333.31;6318775;28;20305;-66
2022/04/04 14:27:53;;;;;;;;;;;;;;;12.18;54.74;95336.34;6271315;28;1379276;-64
2022/04/04 14:30:57;;;;;;;;;;;;;;;12.30;53.97;95330.69;6320192;28;19919;-66
2022/04/04 14:34:01;;;;;;;;;;;;;;;11.89;54.63;95337.31;6319687;28;19920;-65
2022/04/04 14:37:05;;;;;;;;;;;;;;;11.90;54.25;95333.69;6320228;28;19927;-65
2022/04/04 14:40:06;;;;;;;;;;;;;;;11.77;54.60;95330.50;6319416;28;19920;-65
2022/04/04 14:43:10;;;;;;;;;;;;;;;11.89;53.95;95337.31;6320084;28;20010;-65
2022/04/04 14:46:13;;;;;;;;;;;;;;;11.88;53.74;95335.63;6320367;28;19920;-64
2022/04/04 14:49:17;;;;;;;;;;;;;;;11.81;54.21;95335.34;6319993;28;20018;-65
2022/04/04 14:52:18;;;;;;;;;;;;;;;11.62;54.54;95338.88;6319772;28;19927;-66
2022/04/04 14:55:22;;;;;;;;;;;;;;;11.51;55.18;95346.94;6319929;28;20273;-65
2022/04/04 14:58:25;;;;;;;;;;;;;;;11.46;55.47;95338.63;6319996;28;19920;-65
2022/04/04 15:01:26;;;;;;;;;;;;;;;11.24;56.30;95338.00;6319442;28;19920;-65
2022/04/04 15:04:30;;;;;;;;;;;;;;;10.97;57.11;95340.53;6320509;28;19922;-65
2022/04/04 15:07:31;;;;;;;;;;;;;;;10.99;57.36;95349.13;6324002;28;19924;-65
2022/04/04 15:10:32;;;;;;;;;;;;;;;10.98;57.96;95363.22;6323710;28;19920;-64
2022/04/04 15:13:33;;;;;;;;;;;;;;;10.87;58.32;95358.09;6323997;28;19931;-65
2022/04/04 15:16:34;;;;;;;;;;;;;;;10.70;59.26;95365.72;6323797;28;20408;-65
2022/04/04 15:19:38;;;;;;;;;;;;;;;10.72;59.35;95363.78;6324461;28;19919;-65
2022/04/04 15:22:39;;;;;;;;;;;;;;;10.54;60.25;95375.94;6322662;28;20312;-65
2022/04/04 15:25:42;;;;;;;;;;;;;;;10.55;60.44;95377.59;6323748;28;19959;-65
2022/04/04 15:28:45;;;;;;;;;;;;;;;10.55;60.44;95377.59;6323591;28;20036;-65
2022/04/04 15:31:48;;;;;;;;;;;;;;;10.59;60.61;95389.53;6323770;28;19920;-64
2022/04/04 15:34:51;;;;;;;;;;;;;;;10.41;60.89;95385.88;6323491;28;19924;-64
2022/04/04 15:37:55;;;;;;;;;;;;;;;10.36;61.41;95382.81;6323302;28;19926;-65
2022/04/04 15:41:00;;;;;;;;;;;;;;;10.44;60.91;95380.34;6323588;28;20393;-65
2022/04/04 15:44:03;;;;;;;;;;;;;;;10.64;60.26;95387.28;6323346;28;19924;-65
2022/04/04 15:47:10;;;;;;;;;;;;;;;10.55;60.38;95382.88;6323198;28;20002;-65
2022/04/04 15:50:14;;;;;;;;;;;;;;;10.66;59.88;95374.03;6323130;28;19981;-65
2022/04/04 15:53:16;;;;;;;;;;;;;;;10.52;59.85;95362.09;6322861;28;19920;-64
2022/04/04 15:56:21;;;;;;;;;;;;;;;10.53;59.49;95369.00;6323167;28;19919;-65
2022/04/04 15:59:27;;;;;;;;;;;;;;;10.65;59.21;95360.03;6323619;28;20312;-64
2022/04/04 16:02:32;;;;;;;;;;;;;;;10.92;58.09;95369.06;6323480;28;19920;-66
2022/04/04 16:05:33;;;;;;;;;;;;;;;11.15;57.36;95369.59;6322784;28;19930;-66
2022/04/04 16:08:37;;;;;;;;;;;;;;;11.12;57.29;95375.97;6322940;28;19920;-65
2022/04/04 16:11:40;;;;;;;;;;;;;;;11.12;57.21;95385.66;6322677;28;20322;-65